createdAt,value
2023-05-23T00:02:15.756Z,100832.84
2023-05-23T00:04:42.969Z,100838.63
2023-05-23T00:07:09.777Z,100834.72
2023-05-23T00:09:36.349Z,100835.28
2023-05-23T00:12:02.996Z,100835.81
2023-05-23T00:14:33.759Z,100839.31
2023-05-23T00:17:01.209Z,100836.16
2023-05-23T00:19:27.828Z,100846.22
2023-05-23T00:21:58.252Z,100838.63
2023-05-23T00:24:24.780Z,100839.19
2023-05-23T00:26:51.424Z,100825.22
2023-05-23T00:29:18.176Z,100832.91
2023-05-23T00:31:46.509Z,100827.66
2023-05-23T00:34:15.056Z,100831.91
2023-05-23T00:36:43.653Z,100833.25
2023-05-23T00:39:18.921Z,100821.72
2023-05-23T00:41:49.185Z,100821.72
2023-05-23T00:44:19.921Z,100822.28
2023-05-23T00:46:49.535Z,100822.06
2023-05-23T00:49:19.992Z,100828.41
2023-05-23T00:51:46.838Z,100824.53
2023-05-23T00:54:14.824Z,100828.72
2023-05-23T00:56:41.306Z,100824.78
2023-05-23T00:59:07.854Z,100826.69
2023-05-23T01:01:36.883Z,100825.13
2023-05-23T01:04:04.455Z,100822.00
2023-05-23T01:06:33.251Z,100815.72
2023-05-23T01:09:02.661Z,100820.75
2023-05-23T01:11:43.945Z,100812.59
2023-05-23T01:14:21.412Z,100802.13
2023-05-23T01:16:56.140Z,100813.72
2023-05-23T01:19:50.761Z,100807.69
2023-05-23T01:22:50.434Z,100807.47
2023-05-23T01:25:46.598Z,100797.75
2023-05-23T01:28:18.009Z,100799.88
2023-05-23T01:30:46.764Z,100799.41
2023-05-23T01:33:16.253Z,100807.00
2023-05-23T01:35:43.841Z,100804.97
2023-05-23T01:38:10.488Z,100815.47
2023-05-23T01:40:39.278Z,100810.22
2023-05-23T01:43:06.443Z,100805.75
2023-05-23T01:45:33.957Z,100808.44
2023-05-23T01:48:02.413Z,100804.97
2023-05-23T01:50:30.352Z,100805.31
2023-05-23T01:52:57.493Z,100800.28
2023-05-23T01:55:26.445Z,100801.38
2023-05-23T01:57:57.381Z,100810.31
2023-05-23T02:00:24.348Z,100805.84
2023-05-23T02:02:51.612Z,100798.25
2023-05-23T02:05:18.126Z,100807.94
2023-05-23T02:07:45.350Z,100815.09
2023-05-23T02:10:11.922Z,100802.72
2023-05-23T02:12:38.403Z,100803.25
2023-05-23T02:15:05.618Z,100797.47
2023-05-23T02:17:32.252Z,100809.06
2023-05-23T02:19:59.401Z,100812.28
2023-05-23T02:22:26.471Z,100811.72
2023-05-23T02:24:53.139Z,100816.75
2023-05-23T02:27:20.001Z,100807.84
2023-05-23T02:29:46.662Z,100815.19
2023-05-23T02:32:13.334Z,100820.75
2023-05-23T02:34:40.541Z,100825.75
2023-05-23T02:37:07.617Z,100821.28
2023-05-23T02:39:36.326Z,100821.63
2023-05-23T02:42:03.242Z,100821.84
2023-05-23T02:44:30.025Z,100826.06
2023-05-23T02:46:57.163Z,100827.41
2023-05-23T02:49:23.698Z,100828.72
2023-05-23T02:51:51.027Z,100834.31
2023-05-23T02:54:17.759Z,100824.03
2023-05-23T02:56:47.806Z,100823.03
2023-05-23T02:59:14.439Z,100818.56
2023-05-23T03:01:41.218Z,100826.72
2023-05-23T03:04:07.861Z,100820.69
2023-05-23T03:06:36.888Z,100824.13
2023-05-23T03:09:04.116Z,100834.91
2023-05-23T03:11:30.761Z,100841.81
2023-05-23T03:13:59.616Z,100839.47
2023-05-23T03:16:26.343Z,100835.00
2023-05-23T03:18:53.108Z,100831.31
2023-05-23T03:21:19.793Z,100838.47
2023-05-23T03:23:46.415Z,100828.19
2023-05-23T03:26:13.045Z,100842.66
2023-05-23T03:28:39.680Z,100825.63
2023-05-23T03:31:06.356Z,100831.94
2023-05-23T03:33:33.665Z,100827.25
2023-05-23T03:36:00.365Z,100828.84
2023-05-23T03:38:27.958Z,100825.69
2023-05-23T03:40:54.624Z,100829.13
2023-05-23T03:43:21.514Z,100833.38
2023-05-23T03:45:48.496Z,100825.22
2023-05-23T03:48:17.409Z,100836.03
2023-05-23T03:50:44.286Z,100833.69
2023-05-23T03:53:11.760Z,100819.75
2023-05-23T03:55:39.405Z,100818.47
2023-05-23T03:58:06.432Z,100817.41
2023-05-23T04:00:33.140Z,100821.34
2023-05-23T04:03:05.123Z,100821.13
2023-05-23T04:05:32.098Z,100818.25
2023-05-23T04:08:01.405Z,100823.22
2023-05-23T04:10:28.835Z,100828.25
2023-05-23T04:12:56.960Z,100832.44
2023-05-23T04:15:23.775Z,100820.97
2023-05-23T04:17:58.247Z,100834.09
2023-05-23T04:20:26.251Z,100828.63
2023-05-23T04:22:53.117Z,100818.13
2023-05-23T04:25:20.336Z,100818.13
2023-05-23T04:28:01.989Z,100827.03
2023-05-23T04:30:30.570Z,100827.34
2023-05-23T04:33:00.722Z,100829.25
2023-05-23T04:35:28.952Z,100823.44
2023-05-23T04:37:56.723Z,100827.66
2023-05-23T04:40:25.050Z,100834.00
2023-05-23T04:43:01.695Z,100830.06
2023-05-23T04:45:33.905Z,100833.78
2023-05-23T04:48:04.584Z,100829.84
2023-05-23T04:50:43.576Z,100834.09
2023-05-23T04:53:10.427Z,100837.53
2023-05-23T04:55:38.299Z,100830.16
2023-05-23T04:58:08.012Z,100832.28
2023-05-23T05:00:35.983Z,100837.81
2023-05-23T05:03:02.824Z,100836.00
2023-05-23T05:05:30.574Z,100837.34
2023-05-23T05:07:57.038Z,100845.00
2023-05-23T05:10:23.767Z,100845.78
2023-05-23T05:12:50.366Z,100851.09
2023-05-23T05:15:19.413Z,100841.63
2023-05-23T05:17:50.055Z,100839.81
2023-05-23T05:20:18.931Z,100845.88
2023-05-23T05:22:45.849Z,100850.59
2023-05-23T05:25:12.840Z,100851.69
2023-05-23T05:27:39.970Z,100847.00
2023-05-23T05:30:10.160Z,100858.56
2023-05-23T05:32:58.194Z,100845.19
2023-05-23T05:35:24.860Z,100852.28
2023-05-23T05:37:51.516Z,100852.84
2023-05-23T05:40:18.663Z,100850.25
2023-05-23T05:42:45.170Z,100847.91
2023-05-23T05:45:11.796Z,100850.78
2023-05-23T05:47:41.724Z,100860.53
2023-05-23T05:50:10.219Z,100855.53
2023-05-23T05:52:39.733Z,100856.34
2023-05-23T05:55:08.467Z,100861.09
2023-05-23T05:57:38.662Z,100860.31
2023-05-23T06:00:18.851Z,100867.41
2023-05-23T06:02:55.021Z,100866.38
2023-05-23T06:05:42.032Z,100870.59
2023-05-23T06:08:08.664Z,100871.16
2023-05-23T06:10:37.904Z,100868.25
2023-05-23T06:13:04.924Z,100863.78
2023-05-23T06:15:32.713Z,100868.78
2023-05-23T06:17:59.324Z,100873.00
2023-05-23T06:20:26.065Z,100861.44
2023-05-23T06:22:54.165Z,100860.66
2023-05-23T06:25:20.908Z,100868.28
2023-05-23T06:27:47.808Z,100861.72
2023-05-23T06:30:14.920Z,100860.97
2023-05-23T06:32:41.718Z,100865.94
2023-05-23T06:35:08.823Z,100864.38
2023-05-23T06:37:35.687Z,100863.56
2023-05-23T06:40:02.273Z,100873.59
2023-05-23T06:42:29.181Z,100860.47
2023-05-23T06:45:04.529Z,100870.47
2023-05-23T06:47:32.434Z,100867.56
2023-05-23T06:49:59.064Z,100861.78
2023-05-23T06:52:25.726Z,100867.28
2023-05-23T06:54:52.547Z,100868.13
2023-05-23T06:57:19.902Z,100859.44
2023-05-23T06:59:46.796Z,100860.72
2023-05-23T07:02:13.581Z,100856.56
2023-05-23T07:04:40.527Z,100855.72
2023-05-23T07:07:15.202Z,100858.59
2023-05-23T07:09:43.564Z,100851.00
2023-05-23T07:12:15.049Z,100859.94
2023-05-23T07:14:43.720Z,100869.41
2023-05-23T07:17:11.330Z,100872.81
2023-05-23T07:19:38.754Z,100869.94
2023-05-23T07:22:06.111Z,100875.72
2023-05-23T07:24:34.831Z,100874.94
2023-05-23T07:27:01.385Z,100874.13
2023-05-23T07:29:29.532Z,100871.25
2023-05-23T07:31:56.589Z,100871.78
2023-05-23T07:34:24.048Z,100867.88
2023-05-23T07:36:54.564Z,100881.25
2023-05-23T07:39:24.387Z,100876.78
2023-05-23T07:41:52.013Z,100870.25
2023-05-23T07:44:21.562Z,100882.06
2023-05-23T07:46:50.617Z,100884.44
2023-05-23T07:49:17.479Z,100882.06
2023-05-23T07:51:44.173Z,100883.66
2023-05-23T07:54:10.767Z,100882.88
2023-05-23T07:56:40.220Z,100882.88
2023-05-23T07:59:08.756Z,100882.06
2023-05-23T08:01:37.408Z,100889.97
2023-05-23T08:04:07.034Z,100887.63
2023-05-23T08:07:04.338Z,100889.75
2023-05-23T08:09:44.891Z,100897.66
2023-05-23T08:12:15.039Z,100892.66
2023-05-23T08:14:50.593Z,100893.47
2023-05-23T08:17:24.194Z,100891.88
2023-05-23T08:19:51.688Z,100897.66
2023-05-23T08:22:18.285Z,100910.81
2023-05-23T08:24:44.881Z,100903.97
2023-05-23T08:27:11.398Z,100907.16
2023-05-23T08:29:38.593Z,100914.25
2023-05-23T08:32:05.896Z,100925.28
2023-05-23T08:34:34.148Z,100930.03
2023-05-23T08:37:01.185Z,100939.50
2023-05-23T08:39:28.047Z,100936.09
2023-05-23T08:42:08.740Z,100932.47
2023-05-23T08:44:35.926Z,100934.03
2023-05-23T08:47:07.707Z,100946.94
2023-05-23T08:49:55.025Z,100950.88
2023-05-23T08:52:25.108Z,100947.72
2023-05-23T08:54:53.969Z,100954.84
2023-05-23T08:57:20.527Z,100963.22
2023-05-23T08:59:53.514Z,100959.09
2023-05-23T09:02:22.621Z,100964.59
2023-05-23T09:04:53.492Z,100970.66
2023-05-23T09:07:23.144Z,100973.28
2023-05-23T09:09:51.466Z,100971.22
2023-05-23T09:12:18.406Z,100978.56
2023-05-23T09:14:48.245Z,100989.34
2023-05-23T09:17:22.402Z,100994.34
2023-05-23T09:19:51.175Z,100994.06
2023-05-23T09:22:28.498Z,101001.19
2023-05-23T09:25:00.941Z,101011.16
2023-05-23T09:27:28.283Z,101016.41
2023-05-23T09:29:55.629Z,101017.75
2023-05-23T09:32:25.157Z,101014.03
2023-05-23T09:34:57.369Z,101036.38
2023-05-23T09:37:33.846Z,101029.56
2023-05-23T09:40:01.991Z,101025.09
2023-05-23T09:42:36.698Z,101032.47
2023-05-23T09:45:04.935Z,101027.22
2023-05-23T09:47:31.875Z,101037.19
2023-05-23T09:49:58.813Z,101043.22
2023-05-23T09:52:26.354Z,101034.81
2023-05-23T09:54:54.354Z,101038.78
2023-05-23T09:57:23.075Z,101045.88
2023-05-23T09:59:54.295Z,101044.81
2023-05-23T10:02:37.498Z,101059.78
2023-05-23T10:05:06.983Z,101062.16
2023-05-23T10:07:37.318Z,101057.41
2023-05-23T10:10:08.294Z,101058.47
2023-05-23T10:12:44.597Z,101072.09
2023-05-23T10:15:16.721Z,101087.59
2023-05-23T10:18:04.192Z,101087.34
2023-05-23T10:20:32.967Z,101097.31
2023-05-23T10:23:01.745Z,101103.06
2023-05-23T10:25:29.075Z,101101.53
2023-05-23T10:28:01.783Z,101105.72
2023-05-23T10:30:29.992Z,101118.03
2023-05-23T10:32:57.975Z,101117.25
2023-05-23T10:35:42.794Z,101132.75
2023-05-23T10:38:21.615Z,101119.34
2023-05-23T10:41:11.191Z,101120.41
2023-05-23T10:43:49.949Z,101139.28
2023-05-23T10:46:16.709Z,101138.25
2023-05-23T10:48:44.778Z,101137.72
2023-05-23T10:51:14.639Z,101149.00
2023-05-23T10:53:47.021Z,101149.50
2023-05-23T10:56:23.598Z,101157.91
2023-05-23T10:58:54.867Z,101148.19
2023-05-23T11:01:22.508Z,101148.44
2023-05-23T11:03:54.795Z,101159.22
2023-05-23T11:06:42.927Z,101156.84
2023-05-23T11:09:12.503Z,101168.38
2023-05-23T11:11:54.238Z,101164.69
2023-05-23T11:14:30.976Z,101171.00
2023-05-23T11:16:57.661Z,101179.63
2023-05-23T11:19:28.395Z,101188.03
2023-05-23T11:22:02.899Z,101188.56
2023-05-23T11:24:52.753Z,101191.66
2023-05-23T11:27:34.572Z,101188.53
2023-05-23T11:30:07.077Z,101199.28
2023-05-23T11:32:34.037Z,101195.31
2023-05-23T11:35:04.971Z,101205.31
2023-05-23T11:37:32.250Z,101207.13
2023-05-23T11:39:59.290Z,101206.84
2023-05-23T11:42:26.092Z,101206.81
2023-05-23T11:44:52.821Z,101217.31
2023-05-23T11:47:19.929Z,101214.94
2023-05-23T11:49:47.350Z,101222.25
2023-05-23T11:52:14.338Z,101225.66
2023-05-23T11:54:44.182Z,101222.50
2023-05-23T11:57:11.406Z,101232.19
2023-05-23T11:59:38.579Z,101239.22
2023-05-23T12:02:07.097Z,101230.81
2023-05-23T12:04:37.020Z,101222.69
2023-05-23T12:07:07.730Z,101235.25
2023-05-23T12:09:47.169Z,101232.09
2023-05-23T12:12:14.869Z,101236.78
2023-05-23T12:14:45.124Z,101231.81
2023-05-23T12:17:13.257Z,101233.38
2023-05-23T12:19:45.346Z,101240.19
2023-05-23T12:22:11.933Z,101240.19
2023-05-23T12:24:45.766Z,101242.78
2023-05-23T12:27:12.448Z,101234.41
2023-05-23T12:29:39.267Z,101246.72
2023-05-23T12:32:07.529Z,101259.06
2023-05-23T12:34:34.063Z,101248.31
2023-05-23T12:39:34.033Z,101242.03
2023-05-23T12:42:10.209Z,101244.91
2023-05-23T12:44:37.058Z,101250.16
2023-05-23T12:47:04.315Z,101243.88
2023-05-23T12:49:31.145Z,101252.81
2023-05-23T12:51:57.908Z,101249.91
2023-05-23T12:54:24.503Z,101254.09
2023-05-23T12:56:51.208Z,101255.41
2023-05-23T12:59:18.140Z,101265.09
2023-05-23T13:01:44.800Z,101268.50
2023-05-23T13:04:11.804Z,101265.63
2023-05-23T13:06:38.512Z,101263.78
2023-05-23T13:09:05.141Z,101277.44
2023-05-23T13:11:31.731Z,101274.28
2023-05-23T13:13:58.219Z,101270.88
2023-05-23T13:16:24.778Z,101269.56
2023-05-23T13:18:52.175Z,101270.59
2023-05-23T13:21:18.814Z,101265.63
2023-05-23T13:23:45.464Z,101269.81
2023-05-23T13:26:12.160Z,101262.75
2023-05-23T13:28:38.774Z,101267.72
2023-05-23T13:31:06.040Z,101271.38
2023-05-23T13:33:32.786Z,101272.19
2023-05-23T13:35:59.436Z,101293.16
2023-05-23T13:38:27.620Z,101274.00
2023-05-23T13:40:54.550Z,101271.94
2023-05-23T13:43:21.521Z,101285.78
2023-05-23T13:45:48.156Z,101280.84
2023-05-23T13:48:14.901Z,101290.28
2023-05-23T13:50:42.975Z,101287.38
2023-05-23T13:53:15.140Z,101276.34
2023-05-23T13:55:41.924Z,101298.91
2023-05-23T13:58:08.646Z,101306.78
2023-05-23T14:00:35.235Z,101297.31
2023-05-23T14:03:02.884Z,101303.09
2023-05-23T14:05:29.619Z,101304.69
2023-05-23T14:07:56.384Z,101313.59
2023-05-23T14:10:23.471Z,101316.78
2023-05-23T14:12:50.160Z,101316.78
2023-05-23T14:15:17.916Z,101305.25
2023-05-23T14:17:44.440Z,101317.56
2023-05-23T14:20:11.432Z,101322.25
2023-05-23T14:22:38.143Z,101328.31
2023-05-23T14:25:05.974Z,101329.34
2023-05-23T14:27:33.571Z,101324.84
2023-05-23T14:30:00.039Z,101325.38
2023-05-23T14:32:26.895Z,101320.38
2023-05-23T14:34:53.638Z,101321.72
2023-05-23T14:37:20.274Z,101327.97
2023-05-23T14:39:46.922Z,101338.72
2023-05-23T14:42:13.503Z,101325.63
2023-05-23T14:44:40.064Z,101327.19
2023-05-23T14:47:06.679Z,101325.63
2023-05-23T14:49:33.304Z,101329.78
2023-05-23T14:51:59.988Z,101330.81
2023-05-23T14:54:26.570Z,101330.03
2023-05-23T14:56:53.620Z,101325.03
2023-05-23T14:59:20.473Z,101342.06
2023-05-23T15:01:47.327Z,101345.97
2023-05-23T15:04:14.236Z,101336.56
2023-05-23T15:06:41.548Z,101343.59
2023-05-23T15:09:10.368Z,101343.59
2023-05-23T15:11:38.923Z,101345.19
2023-05-23T15:14:05.993Z,101355.63
2023-05-23T15:16:33.265Z,101349.59
2023-05-23T15:19:00.778Z,101358.53
2023-05-23T15:21:27.561Z,101361.69
2023-05-23T15:23:54.430Z,101363.78
2023-05-23T15:26:21.065Z,101370.34
2023-05-23T15:28:47.797Z,101366.91
2023-05-23T15:31:14.940Z,101364.00
2023-05-23T15:33:41.586Z,101365.31
2023-05-23T15:36:08.441Z,101368.69
2023-05-23T15:38:35.092Z,101376.28
2023-05-23T15:41:02.415Z,101382.81
2023-05-23T15:43:29.078Z,101396.97
2023-05-23T15:45:55.906Z,101396.38
2023-05-23T15:48:22.502Z,101388.56
2023-05-23T15:50:49.222Z,101397.97
2023-05-23T15:53:15.931Z,101389.06
2023-05-23T15:55:43.061Z,101382.50
2023-05-23T15:58:10.609Z,101393.75
2023-05-23T16:00:37.370Z,101403.69
2023-05-23T16:03:04.200Z,101405.00
2023-05-23T16:05:31.133Z,101406.00
2023-05-23T16:07:57.727Z,101395.78
2023-05-23T16:10:25.689Z,101395.00
2023-05-23T16:12:52.397Z,101411.19
2023-05-23T16:15:19.134Z,101403.88
2023-05-23T16:17:45.939Z,101408.03
2023-05-23T16:20:12.777Z,101392.34
2023-05-23T16:22:41.052Z,101399.91
2023-05-23T16:25:09.409Z,101410.06
2023-05-23T16:27:36.109Z,101405.13
2023-05-23T16:30:04.242Z,101398.53
2023-05-23T16:32:31.114Z,101409.28
2023-05-23T16:34:57.711Z,101408.50
2023-05-23T16:37:24.592Z,101411.38
2023-05-23T16:39:51.170Z,101411.38
2023-05-23T16:42:17.912Z,101408.50
2023-05-23T16:44:45.502Z,101396.16
2023-05-23T16:47:12.167Z,101422.59
2023-05-23T16:49:38.715Z,101423.41
2023-05-23T16:52:05.373Z,101417.84
2023-05-23T16:54:31.970Z,101415.47
2023-05-23T16:57:01.701Z,101431.19
2023-05-23T16:59:29.936Z,101426.94
2023-05-23T17:01:57.147Z,101429.56
2023-05-23T17:04:24.050Z,101430.84
2023-05-23T17:06:51.057Z,101428.97
2023-05-23T17:09:18.112Z,101425.53
2023-05-23T17:11:44.750Z,101422.94
2023-05-23T17:14:11.218Z,101426.31
2023-05-23T17:16:37.727Z,101432.84
2023-05-23T17:19:05.093Z,101435.47
2023-05-23T17:21:32.770Z,101428.09
2023-05-23T17:23:59.292Z,101430.72
2023-05-23T17:26:27.355Z,101428.34
2023-05-23T17:28:53.987Z,101440.84
2023-05-23T17:31:21.016Z,101435.59
2023-05-23T17:33:47.740Z,101427.47
2023-05-23T17:36:14.348Z,101423.81
2023-05-23T17:38:41.623Z,101425.09
2023-05-23T17:41:08.171Z,101438.69
2023-05-23T17:43:34.782Z,101443.38
2023-05-23T17:46:01.363Z,101436.81
2023-05-23T17:48:45.220Z,101433.94
2023-05-23T17:51:12.784Z,101435.75
2023-05-23T17:53:41.357Z,101446.97
2023-05-23T17:56:11.494Z,101445.38
2023-05-23T17:58:40.306Z,101443.81
2023-05-23T18:01:08.538Z,101459.50
2023-05-23T18:03:35.152Z,101451.34
2023-05-23T18:06:01.689Z,101448.94
2023-05-23T18:08:28.336Z,101451.81
2023-05-23T18:10:55.273Z,101458.91
2023-05-23T18:13:22.054Z,101461.78
2023-05-23T18:15:48.663Z,101461.78
2023-05-23T18:18:16.804Z,101464.34
2023-05-23T18:20:44.119Z,101481.59
2023-05-23T18:23:10.945Z,101470.91
2023-05-23T18:25:38.082Z,101472.69
2023-05-23T18:28:05.736Z,101475.00
2023-05-23T18:30:33.179Z,101485.69
2023-05-23T18:32:59.836Z,101480.44
2023-05-23T18:35:26.765Z,101488.00
2023-05-23T18:37:54.259Z,101489.78
2023-05-23T18:40:23.709Z,101489.50
2023-05-23T18:42:50.698Z,101491.59
2023-05-23T18:45:17.458Z,101493.38
2023-05-23T18:47:44.777Z,101494.38
2023-05-23T18:50:12.958Z,101496.97
2023-05-23T18:52:40.034Z,101499.75
2023-05-23T18:55:07.151Z,101498.97
2023-05-23T18:57:33.855Z,101497.81
2023-05-23T19:00:00.476Z,101502.56
2023-05-23T19:02:27.313Z,101505.13
2023-05-23T19:04:54.046Z,101498.81
2023-05-23T19:07:20.624Z,101505.53
2023-05-23T19:09:47.562Z,101502.06
2023-05-23T19:12:14.137Z,101496.75
2023-05-23T19:14:40.679Z,101510.41
2023-05-23T19:17:07.333Z,101526.78
2023-05-23T19:19:37.492Z,101516.56
2023-05-23T19:22:04.655Z,101516.25
2023-05-23T19:24:32.003Z,101511.81
2023-05-23T19:26:58.472Z,101524.00
2023-05-23T19:29:26.437Z,101522.13
2023-05-23T19:31:53.706Z,101510.31
2023-05-23T19:34:20.312Z,101520.25
2023-05-23T19:36:46.833Z,101517.06
2023-05-23T19:39:13.387Z,101521.25
2023-05-23T19:41:40.797Z,101518.53
2023-05-23T19:44:07.654Z,101523.50
2023-05-23T19:46:34.399Z,101531.06
2023-05-23T19:49:01.473Z,101524.50
2023-05-23T19:51:29.080Z,101540.66
2023-05-23T19:53:55.758Z,101533.81
2023-05-23T19:56:22.399Z,101530.34
2023-05-23T19:58:48.863Z,101533.72
2023-05-23T20:01:15.370Z,101537.09
2023-05-23T20:03:41.939Z,101531.34
2023-05-23T20:06:08.551Z,101533.13
2023-05-23T20:08:35.011Z,101549.56
2023-05-23T20:11:01.558Z,101547.97
2023-05-23T20:13:29.576Z,101551.53
2023-05-23T20:15:56.117Z,101551.53
2023-05-23T20:18:22.711Z,101551.53
2023-05-23T20:20:49.423Z,101560.66
2023-05-23T20:23:15.935Z,101560.34
2023-05-23T20:25:43.191Z,101560.84
2023-05-23T20:28:10.041Z,101559.91
2023-05-23T20:30:37.277Z,101577.47
2023-05-23T20:33:03.983Z,101580.78
2023-05-23T20:35:31.144Z,101577.13
2023-05-23T20:37:58.619Z,101571.09
2023-05-23T20:40:26.919Z,101577.81
2023-05-23T20:42:53.482Z,101581.19
2023-05-23T20:45:20.275Z,101574.63
2023-05-23T20:47:47.375Z,101577.22
2023-05-23T20:50:14.859Z,101570.34
2023-05-23T20:52:43.991Z,101568.78
2023-05-23T20:55:10.938Z,101564.81
2023-05-23T20:57:37.797Z,101564.50
2023-05-23T21:00:12.555Z,101561.34
2023-05-23T21:02:40.505Z,101558.47
2023-05-23T21:05:08.577Z,101565.50
2023-05-23T21:07:35.452Z,101554.50
2023-05-23T21:10:03.434Z,101560.72
2023-05-23T21:12:30.525Z,101563.31
2023-05-23T21:14:57.271Z,101565.88
2023-05-23T21:17:24.379Z,101565.53
2023-05-23T21:19:51.601Z,101562.69
2023-05-23T21:22:18.194Z,101568.13
2023-05-23T21:24:45.219Z,101571.00
2023-05-23T21:27:12.260Z,101573.56
2023-05-23T21:29:39.095Z,101571.97
2023-05-23T21:32:05.788Z,101573.25
2023-05-23T21:34:32.433Z,101580.28
2023-05-23T21:36:59.185Z,101575.81
2023-05-23T21:39:28.857Z,101574.25
2023-05-23T21:41:59.769Z,101573.91
2023-05-23T21:44:26.336Z,101576.50
2023-05-23T21:46:52.976Z,101569.16
2023-05-23T21:49:19.563Z,101579.06
2023-05-23T21:51:46.134Z,101579.56
2023-05-23T21:54:12.716Z,101570.13
2023-05-23T21:56:39.378Z,101573.00
2023-05-23T21:59:06.057Z,101566.47
2023-05-23T22:01:32.759Z,101562.53
2023-05-23T22:03:59.566Z,101571.13
2023-05-23T22:06:26.504Z,101562.19
2023-05-23T22:08:53.152Z,101562.69
2023-05-23T22:11:19.729Z,101573.38
2023-05-23T22:13:46.645Z,101560.78
2023-05-23T22:16:13.361Z,101568.63
2023-05-23T22:18:51.403Z,101576.09
2023-05-23T22:21:18.698Z,101557.81
2023-05-23T22:23:45.685Z,101573.44
2023-05-23T22:26:12.876Z,101567.38
2023-05-23T22:28:39.554Z,101568.66
2023-05-23T22:31:06.590Z,101569.97
2023-05-23T22:33:33.258Z,101563.88
2023-05-23T22:35:59.925Z,101566.75
2023-05-23T22:38:26.484Z,101571.41
2023-05-23T22:40:53.044Z,101571.91
2023-05-23T22:43:21.781Z,101577.34
2023-05-23T22:45:50.106Z,101574.13
2023-05-23T22:48:19.369Z,101576.72
2023-05-23T22:50:46.758Z,101570.19
2023-05-23T22:53:15.267Z,101586.59
2023-05-23T22:55:42.464Z,101581.81
2023-05-23T22:58:09.318Z,101582.28
2023-05-23T23:00:36.370Z,101573.38
2023-05-23T23:03:04.005Z,101575.47
2023-05-23T23:05:30.849Z,101569.44
2023-05-23T23:07:57.456Z,101572.47
2023-05-23T23:10:24.233Z,101569.28
2023-05-23T23:12:50.903Z,101568.50
2023-05-23T23:15:17.496Z,101567.38
2023-05-23T23:17:44.089Z,101567.88
2023-05-23T23:20:12.493Z,101569.66
2023-05-23T23:22:39.647Z,101570.44
2023-05-23T23:25:10.657Z,101568.53
2023-05-23T23:27:37.846Z,101575.53
2023-05-23T23:30:06.545Z,101578.09
2023-05-23T23:32:34.365Z,101575.72
2023-05-23T23:35:01.728Z,101584.81
2023-05-23T23:37:28.289Z,101578.75
2023-05-23T23:39:54.806Z,101578.47
2023-05-23T23:42:21.384Z,101577.66
2023-05-23T23:44:47.932Z,101567.13
2023-05-23T23:47:14.507Z,101564.75
2023-05-23T23:49:42.271Z,101564.44
2023-05-23T23:52:08.996Z,101556.78
2023-05-23T23:54:35.827Z,101562.22
2023-05-23T23:57:02.383Z,101556.19
2023-05-23T23:59:28.938Z,101557.94
